Griggsville, Illinois
Current Conditions -  °F | °C
As of 9:35 AM on Friday 24 Oct 2014 (Local Time) from KPPQ Reporting Station
Moderate Fog Moderate Fog  
Wind Chill: 56°   Ceiling: 200
Heat Index: 56°   Visibility: 0.25mi
Dew Point: 55°   Wind: 3mph
Humidity: 94%   Direction: 250°WSW
Pressure: 30.12"   Gusts: NA
Location:  39.71°N, 90.72°W
Report Text: KPPQ 241435Z AUTO 25003KT 1/4SM FG OVC002 14/13 A3012 RMK AO2 T01360127
Loading
Personal Weather Stations






























Interactive Weather Map
Tropical Storm Tracking
New forecast layout! Learn more

10-Day Weather Forecast

Advertisements
Track Severe Weather on mobile